Content
SEND FEEDBACK

Daily
Averages
Monthly
Summary
Italy

VERONA, ITALY


Home > Europe > Italy
Elevation: 90 meters     Latitude: 45 28N     Longitude: 010 55E

WEATHER
 
SELECT A DAY
Number of Records: 406,727;   Date Range: 7/1/96 - 12/23/14
 
SHARE

PRINT THIS DATA

[ ← Previous Day ]
WEATHER ALMANAC - 31 JANUARY, 2013
[ Next Day → ]
[ °F ]   °C
Weather ElementAverageHighLow
Temperature3.8 °C5 °C (2:15 pm)3 °C (12:45 am)
Dewpoint2.1 °C3 °C (12:45 am)1 °C (10:15 am)
Humidity88.8 %100 % (12:45 am)73 % (4:00 pm)
Barometer1020.3 hPa1024 hPa (11:15 am)1017.9 hPa (12:45 am)
Wind Speed5.1 km/h13 km/h (3:45 pm)
Weather ElementAverage
Visibility1.1 km
Wind DirectionSSE (162.6 °)

Weather ElementTotal
Precipitation---
Heating Degree Days14.3 (Base 18.3)
Averaged from 55 records on 31 January, 2013
WEATHER CONDITIONS BREAKOUT
WIND DIRECTION BREAKOUT
WEATHER BY HOUR - 31 JANUARY, 2013
[ °F ]   °C
Local TimeTemperatureDewpointHumidityBarometerVisibilityWind DirectionWind SpeedGust SpeedPrecipitationEventsConditions
12:45 AM3 °C3 °C100 %1017.9 hPa0.2 kmWSW (240°)5.6 km/hFogFog
1:00 AM3.3 °C2.8 °C94 %1019 hPa0 kmWSW (240°)5.6 km/hFogHeavy Fog
1:15 AM3 °C2 °C93 %1017.9 hPa0.2 kmWSW (250°)3.7 km/hFogFog
1:45 AM3 °C2 °C93 %1017.9 hPa0.2 kmWSW (250°)3.7 km/hFogFog
2:15 AM3 °C3 °C100 %1017.9 hPa0.2 kmWest (280°)5.6 km/hFogFog
2:45 AM3 °C3 °C100 %1017.9 hPa0.2 kmWest (280°)5.6 km/hMist
3:15 AM3 °C3 °C100 %1019 hPa0.2 kmWest (270°)5.6 km/hFogFog
3:45 AM3 °C3 °C100 %1019 hPa0.2 kmSW (230°)7.4 km/hFogFog
4:00 AM3.3 °C2.8 °C94 %1020 hPa0 kmSW (230°)7.4 km/hFogHeavy Fog
4:15 AM3 °C2 °C93 %1020 hPa0.2 kmWSW (240°)5.6 km/hFogFog
4:45 AM3 °C2 °C93 %1020 hPa0.2 kmWSW (240°)5.6 km/hFogFog
5:15 AM3 °C2 °C93 %1020 hPa0.2 kmWSW (240°)5.6 km/hFogFog
5:45 AM3 °C3 °C100 %1020 hPa0.2 kmSSW (210°)3.7 km/hFogFog
6:15 AM3 °C3 °C100 %1021 hPa0.3 kmWSW (240°)5.6 km/hFogFog
6:45 AM3 °C3 °C100 %1021 hPa1 kmWNW (300°)3.7 km/hScattered Clouds
7:00 AM3.3 °C2.8 °C95 %1022 hPa1.6 kmWNW (300°)3.7 km/hFogLight Fog
7:15 AM3 °C2 °C93 %1022 hPa1 kmCalmScattered Clouds
7:45 AM3 °C2 °C93 %1022 hPa1 kmSW (220°)1.9 km/hScattered Clouds
8:15 AM3 °C2 °C93 %1022 hPa1 kmSW (230°)5.6 km/hScattered Clouds
8:45 AM3 °C2 °C93 %1022 hPa1 kmSSW (210°)3.7 km/hScattered Clouds
9:15 AM3 °C2 °C93 %1022 hPa1 kmSW (220°)3.7 km/hScattered Clouds
9:45 AM3 °C2 °C93 %1023 hPa1.1 kmCalmScattered Clouds
10:00 AM3.3 °C1.7 °C86 %1023.7 hPa1.6 kmCalmMist
10:15 AM4 °C1 °C81 %1023 hPa1.1 kmSE (130°)7.4 km/hScattered Clouds
10:45 AM4 °C2 °C87 %1023 hPa1.1 kmESE (120°)3.7 km/hScattered Clouds
11:15 AM4 °C1 °C81 %1024 hPa1.4 kmCalmScattered Clouds
11:45 AM4 °C2 °C87 %1023 hPa1.4 kmEast (80°)3.7 km/hScattered Clouds
12:15 PM4 °C2 °C87 %1023 hPa1.4 kmSouth (180°)1.9 km/hScattered Clouds
12:45 PM4 °C2 °C87 %1023 hPa1.9 kmSE (130°)3.7 km/hScattered Clouds
1:00 PM3.9 °C1.7 °C79 %1023.7 hPa1.6 kmSE (130°)3.7 km/hMist
1:15 PM4 °C2 °C87 %1022 hPa1.9 kmEast (90°)5.6 km/hScattered Clouds
1:45 PM4 °C1 °C81 %1022 hPa1.9 kmSouth (190°)5.6 km/hScattered Clouds
2:15 PM5 °C2 °C81 %1021 hPa1.9 kmEast (90°)3.7 km/hScattered Clouds
2:45 PM5 °C2 °C81 %1020 hPa3.1 kmEast (90°)7.4 km/hScattered Clouds
3:15 PM5 °C2 °C81 %1020 hPa2.6 kmEast (100°)9.3 km/hScattered Clouds
3:45 PM5 °C2 °C81 %1020 hPa1.9 kmEast (100°)13 km/hScattered Clouds
4:00 PM5 °C1.7 °C73 %1021 hPa1.6 kmEast (100°)13 km/hMist
4:15 PM5 °C2 °C81 %1020 hPa1.9 kmSE (130°)9.3 km/hScattered Clouds
4:45 PM5 °C2 °C81 %1020 hPa1.8 kmESE (110°)7.4 km/hScattered Clouds
5:15 PM5 °C2 °C81 %1020 hPa1.8 kmESE (110°)9.3 km/hScattered Clouds
5:45 PM4 °C2 °C87 %1020 hPa1.4 kmESE (120°)9.3 km/hScattered Clouds
6:15 PM4 °C2 °C87 %1020 hPa1.4 kmESE (110°)9.3 km/hScattered Clouds
6:45 PM4 °C2 °C87 %1020 hPa1.1 kmSE (130°)11.1 km/hScattered Clouds
7:00 PM4.4 °C2.2 °C80 %1020.7 hPa1.6 kmSE (130°)11.1 km/hMist
7:15 PM4 °C2 °C87 %1020 hPa1.1 kmESE (110°)5.6 km/hScattered Clouds
7:45 PM4 °C2 °C87 %1019 hPa1.4 kmESE (120°)5.6 km/hScattered Clouds
8:15 PM4 °C2 °C87 %1019 hPa1.4 kmESE (110°)1.9 km/hMostly Cloudy
8:45 PM4 °C2 °C87 %1019 hPa1.4 kmCalmMostly Cloudy
9:15 PM4 °C2 °C87 %1019 hPa1.4 kmESE (120°)1.9 km/hMostly Cloudy
9:45 PM4 °C2 °C87 %1019 hPa1.9 kmSouth (180°)3.7 km/hMostly Cloudy
10:00 PM3.9 °C1.7 °C82 %1019.6 hPa1.6 kmSouth (180°)3.7 km/hMist
10:15 PM4 °C2 °C87 %1019 hPa1.9 kmCalmMostly Cloudy
10:45 PM4 °C2 °C87 %1019 hPa1.9 kmSW (230°)1.9 km/hMostly Cloudy
11:15 PM4 °C2 °C87 %1017.9 hPa1.4 kmSW (220°)5.6 km/hMostly Cloudy
11:45 PM4 °C2 °C87 %1017.9 hPa1.4 kmSW (220°)5.6 km/hMostly Cloudy
Hourly data recorded from LIPX, located 0 kilometers away from Verona, Italy







STORIES FROM OUR PARTNERS